Time;durP1;ratioP1;P1;durP2;ratioP2;P2;SDS_P1;SDS_P2;PMS_P1;PMS_P2;Temp;Humidity;BMP_temperature;BMP_pressure;BME280_temperature;BME280_humidity;BME280_pressure;Samples;Min_cycle;Max_cycle;Signal;HPM_P1;HPM_P2
2022/08/19 00:01:30;;;;;;;11.00;9.07;;;;;;;;;;5032581;28;20216;-63
2022/08/19 00:03:57;;;;;;;10.88;9.75;;;;;;;;;;5035285;28;20179;-63
2022/08/19 00:06:23;;;;;;;11.25;8.95;;;;;;;;;;5034133;28;20204;-63
2022/08/19 00:08:48;;;;;;;12.50;9.27;;;;;;;;;;5034860;28;20176;-63
2022/08/19 00:11:13;;;;;;;10.15;9.02;;;;;;;;;;5035226;28;20180;-63
2022/08/19 00:13:39;;;;;;;11.48;8.73;;;;;;;;;;5035334;28;20279;-63
2022/08/19 00:16:05;;;;;;;12.07;8.93;;;;;;;;;;5034595;28;20247;-63
2022/08/19 00:18:31;;;;;;;11.45;9.13;;;;;;;;;;5034552;28;20169;-63
2022/08/19 00:20:56;;;;;;;11.48;9.10;;;;;;;;;;5034109;28;20164;-63
2022/08/19 00:23:21;;;;;;;11.18;8.65;;;;;;;;;;5034619;28;20180;-63
2022/08/19 00:25:47;;;;;;;11.70;9.50;;;;;;;;;;5033353;28;20253;-63
2022/08/19 00:28:12;;;;;;;11.75;9.45;;;;;;;;;;5033893;28;20168;-63
2022/08/19 00:30:37;;;;;;;13.25;9.60;;;;;;;;;;5034804;28;20294;-63
2022/08/19 00:33:03;;;;;;;10.95;9.35;;;;;;;;;;5034344;28;20213;-63
2022/08/19 00:35:28;;;;;;;11.05;8.93;;;;;;;;;;5032957;28;20168;-63
2022/08/19 00:37:53;;;;;;;10.60;8.98;;;;;;;;;;5034316;28;20161;-63
2022/08/19 00:40:19;;;;;;;11.20;9.50;;;;;;;;;;5034656;28;20717;-63
2022/08/19 00:42:45;;;;;;;11.07;8.55;;;;;;;;;;5033860;28;20339;-63
2022/08/19 00:45:12;;;;;;;11.85;9.50;;;;;;;;;;5034553;28;20324;-63
2022/08/19 00:47:37;;;;;;;11.77;9.52;;;;;;;;;;5032860;28;20167;-63
2022/08/19 00:50:03;;;;;;;10.63;9.52;;;;;;;;;;5033842;28;20176;-63
2022/08/19 00:52:30;;;;;;;14.25;11.35;;;;;;;;;;5033267;28;20218;-63
2022/08/19 00:54:56;;;;;;;12.35;11.05;;;;;;;;;;5033519;28;20219;-63
2022/08/19 00:57:23;;;;;;;13.23;11.77;;;;;;;;;;5033577;28;20242;-63
2022/08/19 00:59:48;;;;;;;14.23;11.75;;;;;;;;;;5033015;28;20247;-63
2022/08/19 01:02:14;;;;;;;13.38;11.98;;;;;;;;;;5032602;28;20267;-63
2022/08/19 01:04:39;;;;;;;14.43;11.77;;;;;;;;;;5032039;28;20649;-63
2022/08/19 01:07:04;;;;;;;17.63;13.13;;;;;;;;;;5034457;28;20175;-63
2022/08/19 01:09:30;;;;;;;14.27;11.75;;;;;;;;;;5034058;28;20218;-63
2022/08/19 01:11:55;;;;;;;18.17;12.98;;;;;;;;;;5033427;28;20207;-63
2022/08/19 01:14:20;;;;;;;15.23;12.70;;;;;;;;;;5034055;28;20191;-63
2022/08/19 01:16:46;;;;;;;14.52;12.65;;;;;;;;;;5033717;28;20172;-63
2022/08/19 01:19:16;;;;;;;14.63;12.70;;;;;;;;;;5033190;28;20275;-63
2022/08/19 01:21:43;;;;;;;12.88;11.00;;;;;;;;;;5032559;28;20160;-63
2022/08/19 01:24:09;;;;;;;14.35;12.10;;;;;;;;;;5033158;28;20187;-63
2022/08/19 01:26:38;;;;;;;13.63;11.85;;;;;;;;;;5033648;28;20674;-63
2022/08/19 01:29:03;;;;;;;13.95;10.95;;;;;;;;;;5032464;28;20164;-63
2022/08/19 01:31:30;;;;;;;13.05;11.32;;;;;;;;;;5033002;28;20168;-63
2022/08/19 01:33:55;;;;;;;15.57;12.00;;;;;;;;;;5032216;28;20638;-63
2022/08/19 01:36:25;;;;;;;14.15;11.77;;;;;;;;;;5033874;28;20164;-63
2022/08/19 01:38:50;;;;;;;11.80;10.45;;;;;;;;;;5032476;28;20641;-63
2022/08/19 01:41:16;;;;;;;13.95;10.60;;;;;;;;;;5032200;28;20176;-63
2022/08/19 01:43:42;;;;;;;12.77;10.13;;;;;;;;;;5033283;28;20174;-63
2022/08/19 01:46:07;;;;;;;12.20;10.13;;;;;;;;;;5032277;28;20314;-63
2022/08/19 01:48:36;;;;;;;11.85;10.60;;;;;;;;;;5033610;28;20165;-63
2022/08/19 01:51:01;;;;;;;14.55;11.52;;;;;;;;;;5031388;28;20516;-63
2022/08/19 01:53:27;;;;;;;11.65;10.45;;;;;;;;;;5032422;28;20175;-63
2022/08/19 01:55:52;;;;;;;13.38;11.02;;;;;;;;;;5033236;28;20229;-63
2022/08/19 01:58:20;;;;;;;14.63;10.75;;;;;;;;;;5033116;28;20164;-63
2022/08/19 02:00:45;;;;;;;12.32;10.65;;;;;;;;;;5031085;28;20243;-63
2022/08/19 02:03:11;;;;;;;14.57;11.10;;;;;;;;;;5033018;28;20662;-63
2022/08/19 02:05:37;;;;;;;14.27;11.20;;;;;;;;;;5032911;28;20207;-63
2022/08/19 02:08:02;;;;;;;13.23;10.95;;;;;;;;;;5032512;28;20192;-63
2022/08/19 02:10:27;;;;;;;13.15;11.32;;;;;;;;;;5031535;28;20176;-63
2022/08/19 02:12:53;;;;;;;12.43;10.93;;;;;;;;;;5032855;28;20683;-63
2022/08/19 02:15:19;;;;;;;13.52;11.65;;;;;;;;;;5032212;28;20174;-63
2022/08/19 02:17:44;;;;;;;13.32;10.43;;;;;;;;;;5031479;28;20513;-63
2022/08/19 02:20:10;;;;;;;12.73;11.35;;;;;;;;;;5032680;28;20271;-63
2022/08/19 02:22:35;;;;;;;12.70;10.35;;;;;;;;;;5032005;28;20167;-64
2022/08/19 02:25:00;;;;;;;12.73;11.00;;;;;;;;;;5032485;28;20200;-65
2022/08/19 02:27:26;;;;;;;12.10;10.80;;;;;;;;;;5003653;28;20215;-65
2022/08/19 02:29:51;;;;;;;14.68;11.38;;;;;;;;;;5011045;28;20178;-65
2022/08/19 02:32:19;;;;;;;14.38;11.60;;;;;;;;;;5020776;28;20184;-65
2022/08/19 02:34:44;;;;;;;17.65;12.20;;;;;;;;;;5014881;28;20604;-65
2022/08/19 02:38:24;;;;;;;13.75;11.73;;;;;;;;;;5021221;28;20184;-65
2022/08/19 02:39:55;;;;;;;13.23;10.63;;;;;;;;;;5017326;28;20186;-65
2022/08/19 02:42:20;;;;;;;13.18;10.75;;;;;;;;;;5008303;28;20181;-65
2022/08/19 02:44:45;;;;;;;12.95;11.05;;;;;;;;;;4995037;28;20299;-64
2022/08/19 02:47:11;;;;;;;14.43;11.45;;;;;;;;;;4998144;28;20268;-65
2022/08/19 02:49:36;;;;;;;17.30;12.57;;;;;;;;;;5002263;28;20188;-65
2022/08/19 02:52:02;;;;;;;13.88;11.38;;;;;;;;;;5021691;28;20187;-64
2022/08/19 02:54:28;;;;;;;13.10;11.52;;;;;;;;;;5019426;28;20176;-64
2022/08/19 02:56:53;;;;;;;14.68;11.23;;;;;;;;;;5002305;28;20187;-65
2022/08/19 02:59:18;;;;;;;15.70;12.43;;;;;;;;;;5020978;28;20167;-64
2022/08/19 03:01:44;;;;;;;14.52;12.30;;;;;;;;;;5004853;28;20192;-65
2022/08/19 03:04:10;;;;;;;15.82;11.85;;;;;;;;;;5016348;28;20210;-64
2022/08/19 03:06:37;;;;;;;14.75;11.70;;;;;;;;;;5017171;28;20211;-64
2022/08/19 03:09:02;;;;;;;13.05;11.45;;;;;;;;;;5019207;28;20181;-65
2022/08/19 03:11:29;;;;;;;13.73;11.20;;;;;;;;;;5025322;28;20176;-65
2022/08/19 03:13:54;;;;;;;13.15;10.88;;;;;;;;;;5026678;28;20195;-64
2022/08/19 03:16:20;;;;;;;13.95;11.30;;;;;;;;;;5026148;28;20180;-64
2022/08/19 03:18:45;;;;;;;13.82;10.30;;;;;;;;;;5024569;28;20184;-65
2022/08/19 03:21:15;;;;;;;14.57;11.95;;;;;;;;;;5025659;28;20635;-64
2022/08/19 03:23:41;;;;;;;14.10;11.50;;;;;;;;;;5025311;28;20195;-65
2022/08/19 03:26:06;;;;;;;16.42;12.32;;;;;;;;;;5020065;28;20624;-64
2022/08/19 03:28:31;;;;;;;14.70;10.55;;;;;;;;;;5018019;28;20175;-64
2022/08/19 03:30:57;;;;;;;14.65;11.45;;;;;;;;;;5017553;28;20973;-64
2022/08/19 03:33:23;;;;;;;15.07;11.93;;;;;;;;;;5022685;28;20265;-64
2022/08/19 03:35:59;;;;;;;14.82;12.27;;;;;;;;;;5008162;28;20250;-64
2022/08/19 03:38:24;;;;;;;14.30;11.73;;;;;;;;;;5006108;28;20176;-64
2022/08/19 03:40:49;;;;;;;13.95;12.25;;;;;;;;;;5006598;28;20231;-64
2022/08/19 03:43:17;;;;;;;14.27;12.07;;;;;;;;;;5006582;28;20624;-65
2022/08/19 03:45:42;;;;;;;14.68;12.02;;;;;;;;;;5015579;28;20232;-64
2022/08/19 03:48:08;;;;;;;14.02;12.15;;;;;;;;;;5002076;28;20177;-65
2022/08/19 03:50:33;;;;;;;16.40;12.02;;;;;;;;;;5017678;28;20689;-65
2022/08/19 03:52:58;;;;;;;15.48;12.88;;;;;;;;;;5015235;28;20207;-64
2022/08/19 03:55:24;;;;;;;15.20;12.07;;;;;;;;;;5016981;28;20226;-64
2022/08/19 03:57:49;;;;;;;14.68;11.88;;;;;;;;;;5023520;28;20179;-64
2022/08/19 04:00:15;;;;;;;16.17;12.55;;;;;;;;;;5025452;28;20223;-64
2022/08/19 04:02:41;;;;;;;16.25;12.82;;;;;;;;;;5024119;28;20176;-64
2022/08/19 04:05:07;;;;;;;14.82;12.05;;;;;;;;;;5025368;28;20215;-64
2022/08/19 04:07:33;;;;;;;15.45;11.88;;;;;;;;;;5024703;28;20172;-64
2022/08/19 04:09:59;;;;;;;19.23;12.90;;;;;;;;;;5023087;28;21043;-64
2022/08/19 04:12:24;;;;;;;17.10;13.60;;;;;;;;;;5017340;28;20203;-64
2022/08/19 04:14:49;;;;;;;17.27;13.90;;;;;;;;;;5016116;28;20170;-65
2022/08/19 04:17:14;;;;;;;16.10;14.00;;;;;;;;;;5018594;28;20538;-64
2022/08/19 04:19:40;;;;;;;15.48;13.15;;;;;;;;;;5031382;28;20211;-66
2022/08/19 04:22:06;;;;;;;14.00;11.98;;;;;;;;;;5033110;28;20194;-64
2022/08/19 04:24:32;;;;;;;17.05;13.05;;;;;;;;;;5035042;28;20143;-63
2022/08/19 04:26:58;;;;;;;17.35;14.23;;;;;;;;;;5032807;28;20614;-64
2022/08/19 04:29:24;;;;;;;18.23;14.48;;;;;;;;;;5033885;28;20218;-63
2022/08/19 04:31:50;;;;;;;15.48;13.85;;;;;;;;;;5034881;28;20643;-64
2022/08/19 04:34:16;;;;;;;15.63;12.73;;;;;;;;;;5033925;28;20941;-62
2022/08/19 04:36:44;;;;;;;15.85;13.13;;;;;;;;;;5033096;28;20651;-62
2022/08/19 04:39:11;;;;;;;16.50;14.20;;;;;;;;;;5033032;28;20705;-65
2022/08/19 04:44:20;;;;;;;16.50;13.50;;;;;;;;;;5034355;28;20203;-63
2022/08/19 04:46:47;;;;;;;16.90;14.05;;;;;;;;;;5034337;28;20204;-64
2022/08/19 04:49:12;;;;;;;17.58;14.63;;;;;;;;;;5031881;28;20190;-64
2022/08/19 04:51:39;;;;;;;16.58;14.65;;;;;;;;;;5032579;28;20627;-64
2022/08/19 04:54:04;;;;;;;18.55;14.68;;;;;;;;;;5032716;28;20627;-62
2022/08/19 04:56:30;;;;;;;16.50;14.35;;;;;;;;;;5033536;28;20190;-63
2022/08/19 04:58:55;;;;;;;16.02;14.00;;;;;;;;;;5034095;28;20172;-63
2022/08/19 05:01:23;;;;;;;17.63;14.85;;;;;;;;;;5034041;28;20164;-64
2022/08/19 05:03:49;;;;;;;16.98;13.98;;;;;;;;;;5031974;28;20650;-63
2022/08/19 05:06:14;;;;;;;17.30;14.35;;;;;;;;;;5034393;28;20200;-63
2022/08/19 05:08:42;;;;;;;14.95;12.57;;;;;;;;;;5033975;28;20172;-64
2022/08/19 05:11:13;;;;;;;17.77;14.48;;;;;;;;;;5032161;28;20246;-64
2022/08/19 05:13:39;;;;;;;16.40;14.18;;;;;;;;;;5033800;28;20171;-64
2022/08/19 05:16:04;;;;;;;17.25;14.65;;;;;;;;;;5034008;28;20168;-63
2022/08/19 05:23:58;;;;;;;18.10;14.88;;;;;;;;;;5030170;28;20171;-63
2022/08/19 05:26:25;;;;;;;17.52;14.75;;;;;;;;;;5032713;28;20196;-63
2022/08/19 05:28:51;;;;;;;18.98;15.13;;;;;;;;;;5032918;28;20175;-62
2022/08/19 05:31:16;;;;;;;20.40;15.05;;;;;;;;;;5033027;28;20168;-63
2022/08/19 05:33:42;;;;;;;16.77;14.25;;;;;;;;;;5033758;28;20218;-63
2022/08/19 05:36:07;;;;;;;14.75;13.10;;;;;;;;;;5033763;28;20226;-63
2022/08/19 05:38:33;;;;;;;14.15;12.60;;;;;;;;;;5031445;28;20210;-63
2022/08/19 05:40:58;;;;;;;14.48;12.98;;;;;;;;;;5033391;28;20171;-63
2022/08/19 05:43:23;;;;;;;16.07;13.90;;;;;;;;;;5032413;28;20912;-63
2022/08/19 05:45:50;;;;;;;15.38;11.90;;;;;;;;;;5032397;28;20314;-62
2022/08/19 05:48:20;;;;;;;13.95;12.50;;;;;;;;;;5032374;28;20618;-62
2022/08/19 05:50:46;;;;;;;14.13;11.95;;;;;;;;;;5028984;28;20205;-63
2022/08/19 05:53:11;;;;;;;12.75;11.40;;;;;;;;;;5032093;28;20662;-64
2022/08/19 05:55:38;;;;;;;15.15;12.40;;;;;;;;;;5033205;28;20294;-62
2022/08/19 05:58:03;;;;;;;20.48;13.85;;;;;;;;;;5032151;28;20263;-63
2022/08/19 06:00:30;;;;;;;16.70;13.63;;;;;;;;;;5032726;28;20278;-63
2022/08/19 06:03:02;;;;;;;16.42;13.30;;;;;;;;;;5033604;28;20195;-63
2022/08/19 06:05:28;;;;;;;17.27;14.10;;;;;;;;;;5032583;28;20203;-63
2022/08/19 06:07:54;;;;;;;18.92;14.20;;;;;;;;;;5032261;28;20172;-63
2022/08/19 06:10:20;;;;;;;17.90;14.40;;;;;;;;;;5032796;28;20165;-64
2022/08/19 06:12:45;;;;;;;16.08;14.38;;;;;;;;;;5030967;28;20305;-64
2022/08/19 06:15:11;;;;;;;20.75;14.82;;;;;;;;;;5032752;28;20277;-64
2022/08/19 06:17:36;;;;;;;19.20;16.20;;;;;;;;;;5032096;28;20854;-63
2022/08/19 06:20:03;;;;;;;21.50;17.15;;;;;;;;;;5029909;28;20183;-63
2022/08/19 06:22:29;;;;;;;19.42;16.67;;;;;;;;;;5032358;28;20298;-63
2022/08/19 06:24:55;;;;;;;20.33;16.95;;;;;;;;;;5032381;28;20593;-63
2022/08/19 06:27:20;;;;;;;20.38;17.25;;;;;;;;;;5031788;28;20175;-63
2022/08/19 06:29:46;;;;;;;20.15;17.25;;;;;;;;;;5032405;28;20183;-62
2022/08/19 06:32:12;;;;;;;20.13;17.58;;;;;;;;;;5031687;28;20275;-63
2022/08/19 06:34:37;;;;;;;18.70;16.17;;;;;;;;;;5031686;28;20254;-64
2022/08/19 06:37:03;;;;;;;21.58;16.38;;;;;;;;;;5032137;28;20168;-63
2022/08/19 06:39:29;;;;;;;23.45;15.68;;;;;;;;;;5031519;28;20225;-63
2022/08/19 06:41:57;;;;;;;23.55;17.95;;;;;;;;;;5030850;28;20160;-63
2022/08/19 06:44:23;;;;;;;20.13;16.38;;;;;;;;;;5031389;28;20176;-64
2022/08/19 06:46:49;;;;;;;18.35;16.45;;;;;;;;;;5033072;28;20220;-65
2022/08/19 06:49:15;;;;;;;22.63;17.55;;;;;;;;;;5032062;28;20514;-65
2022/08/19 06:51:42;;;;;;;21.83;18.85;;;;;;;;;;5031492;28;20694;-65
2022/08/19 06:54:07;;;;;;;23.48;19.25;;;;;;;;;;5031511;28;20234;-65
2022/08/19 06:56:34;;;;;;;21.13;18.90;;;;;;;;;;5031799;28;20192;-64
2022/08/19 06:59:02;;;;;;;23.48;19.98;;;;;;;;;;5032652;28;20560;-65
2022/08/19 07:01:27;;;;;;;23.27;17.65;;;;;;;;;;5031496;28;20258;-65
2022/08/19 07:03:52;;;;;;;24.33;21.33;;;;;;;;;;5032133;28;20700;-64
2022/08/19 07:06:19;;;;;;;30.38;22.10;;;;;;;;;;5032553;28;20223;-65
2022/08/19 07:08:45;;;;;;;31.98;23.42;;;;;;;;;;5031895;28;20215;-65
2022/08/19 07:11:11;;;;;;;29.42;24.48;;;;;;;;;;5032458;28;20187;-65
2022/08/19 07:13:36;;;;;;;34.22;25.60;;;;;;;;;;5031365;28;20314;-65
2022/08/19 07:16:03;;;;;;;33.70;25.13;;;;;;;;;;5030782;28;20168;-65
2022/08/19 07:18:29;;;;;;;30.30;25.60;;;;;;;;;;5032703;28;20211;-65
2022/08/19 07:21:02;;;;;;;28.60;24.13;;;;;;;;;;5032404;28;20200;-65
2022/08/19 07:23:27;;;;;;;35.47;26.30;;;;;;;;;;5031795;28;20178;-65
2022/08/19 07:25:52;;;;;;;34.35;27.08;;;;;;;;;;5032758;28;20298;-65
2022/08/19 07:28:18;;;;;;;32.92;26.58;;;;;;;;;;5032449;28;20194;-65
2022/08/19 07:30:43;;;;;;;34.00;26.75;;;;;;;;;;5031455;28;20263;-65
2022/08/19 07:33:09;;;;;;;34.38;26.33;;;;;;;;;;5032424;28;20160;-65
2022/08/19 07:35:34;;;;;;;34.63;25.75;;;;;;;;;;5032511;28;20175;-65
2022/08/19 07:38:02;;;;;;;37.95;27.75;;;;;;;;;;5031597;28;20175;-65
2022/08/19 07:40:28;;;;;;;41.88;30.38;;;;;;;;;;5032493;28;20311;-65
2022/08/19 07:42:53;;;;;;;38.72;28.90;;;;;;;;;;5032348;28;20648;-65
2022/08/19 07:45:18;;;;;;;39.05;30.08;;;;;;;;;;5031241;28;20582;-65
2022/08/19 07:47:44;;;;;;;41.38;30.70;;;;;;;;;;5032197;28;20190;-65
2022/08/19 07:50:09;;;;;;;42.95;30.98;;;;;;;;;;5035969;28;20190;-65
2022/08/19 07:52:37;;;;;;;39.78;29.60;;;;;;;;;;5035148;28;20529;-65
2022/08/19 07:55:03;;;;;;;46.15;31.92;;;;;;;;;;5036199;28;20165;-65
2022/08/19 07:57:28;;;;;;;45.28;31.95;;;;;;;;;;5035924;28;20172;-65
2022/08/19 07:59:54;;;;;;;45.53;33.38;;;;;;;;;;5035283;28;20168;-65
2022/08/19 08:02:19;;;;;;;48.75;34.33;;;;;;;;;;5035550;28;20172;-65
2022/08/19 08:10:12;;;;;;;51.90;35.25;;;;;;;;;;5036030;28;20291;-65
2022/08/19 08:12:41;;;;;;;51.33;34.33;;;;;;;;;;5034821;28;20657;-65
2022/08/19 08:15:09;;;;;;;45.80;31.70;;;;;;;;;;5035564;28;20646;-65
2022/08/19 08:17:34;;;;;;;48.42;33.42;;;;;;;;;;5033808;28;20580;-65
2022/08/19 08:19:59;;;;;;;42.35;30.73;;;;;;;;;;5034941;28;20202;-65
2022/08/19 08:25:12;;;;;;;45.25;32.85;;;;;;;;;;5035136;28;20677;-65
2022/08/19 08:27:39;;;;;;;49.05;34.72;;;;;;;;;;5034436;28;20255;-66
2022/08/19 08:30:06;;;;;;;49.13;32.83;;;;;;;;;;5033726;28;20163;-65
2022/08/19 08:32:31;;;;;;;49.58;35.83;;;;;;;;;;5034836;28;20241;-65
2022/08/19 08:34:56;;;;;;;49.45;35.53;;;;;;;;;;5029632;28;20176;-66
2022/08/19 08:37:22;;;;;;;56.17;38.75;;;;;;;;;;5029600;28;20299;-65
2022/08/19 08:39:47;;;;;;;56.03;40.20;;;;;;;;;;5015355;28;20208;-65
2022/08/19 08:42:13;;;;;;;61.53;43.13;;;;;;;;;;5017486;28;20263;-65
2022/08/19 08:44:49;;;;;;;57.63;41.78;;;;;;;;;;5034737;28;20212;-65
2022/08/19 08:47:15;;;;;;;54.47;39.05;;;;;;;;;;5033040;28;20183;-65
2022/08/19 08:49:43;;;;;;;52.65;38.83;;;;;;;;;;5033838;28;20168;-65
2022/08/19 08:52:10;;;;;;;50.30;38.08;;;;;;;;;;5033721;28;20179;-65
2022/08/19 08:54:37;;;;;;;48.35;38.88;;;;;;;;;;5032606;28;20175;-65
2022/08/19 08:57:03;;;;;;;49.35;37.83;;;;;;;;;;5034859;28;20176;-65
2022/08/19 08:59:33;;;;;;;42.72;36.53;;;;;;;;;;5034451;28;20195;-65
2022/08/19 09:01:58;;;;;;;42.22;34.45;;;;;;;;;;5033893;28;20631;-65
2022/08/19 09:04:24;;;;;;;39.67;34.03;;;;;;;;;;5032461;28;20230;-65
2022/08/19 09:07:08;;;;;;;40.30;33.60;;;;;;;;;;5034178;28;20215;-64
2022/08/19 09:09:35;;;;;;;34.17;28.90;;;;;;;;;;5032111;28;20172;-66
2022/08/19 09:12:07;;;;;;;32.88;28.23;;;;;;;;;;5033478;28;20179;-66
2022/08/19 09:14:37;;;;;;;32.78;28.58;;;;;;;;;;5034479;28;20168;-66
2022/08/19 09:17:03;;;;;;;38.15;30.20;;;;;;;;;;5033667;28;20184;-66
2022/08/19 09:19:28;;;;;;;36.65;30.67;;;;;;;;;;5034337;28;20678;-66
2022/08/19 09:21:54;;;;;;;31.13;25.58;;;;;;;;;;5034086;28;20176;-66
2022/08/19 09:24:19;;;;;;;31.38;25.63;;;;;;;;;;5033436;28;20530;-66
2022/08/19 09:26:45;;;;;;;30.23;22.20;;;;;;;;;;5034585;28;20207;-66
2022/08/19 09:29:11;;;;;;;28.35;22.77;;;;;;;;;;5034261;28;20191;-66
2022/08/19 09:31:36;;;;;;;28.35;21.08;;;;;;;;;;5031926;28;20623;-68
2022/08/19 09:34:04;;;;;;;24.05;18.13;;;;;;;;;;5033925;28;20172;-67
2022/08/19 09:36:32;;;;;;;22.90;16.50;;;;;;;;;;5031990;28;20164;-65
2022/08/19 09:38:58;;;;;;;23.80;18.17;;;;;;;;;;5033165;28;20443;-65
2022/08/19 09:41:23;;;;;;;23.17;17.48;;;;;;;;;;5033759;28;20168;-60
2022/08/19 09:43:51;;;;;;;21.08;15.48;;;;;;;;;;5032926;28;20176;-63
2022/08/19 09:46:17;;;;;;;24.63;17.33;;;;;;;;;;5033126;28;20695;-62
2022/08/19 09:48:44;;;;;;;25.20;19.75;;;;;;;;;;5003059;28;20730;-62
2022/08/19 09:51:10;;;;;;;27.25;21.40;;;;;;;;;;5027748;28;20172;-73
2022/08/19 09:53:35;;;;;;;24.60;19.40;;;;;;;;;;5024098;28;20734;-69
2022/08/19 09:56:01;;;;;;;25.27;20.20;;;;;;;;;;5009475;28;20249;-63
2022/08/19 09:58:29;;;;;;;25.63;19.80;;;;;;;;;;5031793;28;20171;-64
2022/08/19 10:00:54;;;;;;;28.92;22.80;;;;;;;;;;5031021;28;20164;-64
2022/08/19 10:03:20;;;;;;;30.70;24.35;;;;;;;;;;5032808;28;20611;-64
2022/08/19 10:05:51;;;;;;;30.17;24.17;;;;;;;;;;5031654;28;20227;-64
2022/08/19 10:08:17;;;;;;;34.42;25.65;;;;;;;;;;5032654;28;20164;-64
2022/08/19 10:10:43;;;;;;;31.17;24.48;;;;;;;;;;5030804;28;20199;-64
2022/08/19 10:13:08;;;;;;;33.70;24.00;;;;;;;;;;5030871;28;20613;-64
2022/08/19 10:15:34;;;;;;;34.65;26.13;;;;;;;;;;5032787;28;20203;-64
2022/08/19 10:17:59;;;;;;;30.35;24.35;;;;;;;;;;5031547;28;20183;-65
2022/08/19 10:20:25;;;;;;;32.95;25.00;;;;;;;;;;5031759;28;20197;-65
2022/08/19 10:22:50;;;;;;;32.08;24.33;;;;;;;;;;5032408;28;20171;-66
2022/08/19 10:25:17;;;;;;;33.05;24.85;;;;;;;;;;5032754;28;20196;-64
2022/08/19 10:27:42;;;;;;;27.80;22.55;;;;;;;;;;5032450;28;20176;-64
2022/08/19 10:30:08;;;;;;;28.70;22.40;;;;;;;;;;5031822;28;20502;-64
2022/08/19 10:32:33;;;;;;;28.92;21.35;;;;;;;;;;5031880;28;20214;-64
2022/08/19 10:34:59;;;;;;;28.17;20.23;;;;;;;;;;5030727;28;20255;-64
2022/08/19 10:37:24;;;;;;;27.40;17.75;;;;;;;;;;5031579;28;20176;-64
2022/08/19 10:39:49;;;;;;;31.77;20.40;;;;;;;;;;5032262;28;20627;-64
2022/08/19 10:42:16;;;;;;;34.13;22.88;;;;;;;;;;5032847;28;20172;-64
2022/08/19 10:44:42;;;;;;;28.42;21.00;;;;;;;;;;5032593;28;20232;-64
2022/08/19 10:47:07;;;;;;;29.20;20.63;;;;;;;;;;5031605;28;20218;-64
2022/08/19 10:52:32;;;;;;;24.98;19.08;;;;;;;;;;5032698;28;20164;-64
2022/08/19 10:52:33;;;;;;;24.73;18.48;;;;;;;;;;5032170;28;20237;-64
2022/08/19 10:57:43;;;;;;;23.98;16.90;;;;;;;;;;5031253;28;20178;-64
2022/08/19 11:00:08;;;;;;;23.52;17.50;;;;;;;;;;5032046;28;20160;-64
2022/08/19 11:02:34;;;;;;;26.27;19.27;;;;;;;;;;5031375;28;20255;-64
2022/08/19 11:04:59;;;;;;;27.73;19.67;;;;;;;;;;5032198;28;20167;-64
2022/08/19 11:07:26;;;;;;;25.33;18.65;;;;;;;;;;5032591;28;20249;-64
2022/08/19 11:09:51;;;;;;;23.50;17.67;;;;;;;;;;5031252;28;20506;-64
2022/08/19 11:12:17;;;;;;;26.27;17.98;;;;;;;;;;5032271;28;20178;-64
2022/08/19 11:14:42;;;;;;;24.35;18.23;;;;;;;;;;5032574;28;20168;-64
2022/08/19 11:17:07;;;;;;;26.50;17.75;;;;;;;;;;5031719;28;20218;-64
2022/08/19 11:19:35;;;;;;;26.65;19.10;;;;;;;;;;5032667;28;20196;-64
2022/08/19 11:22:02;;;;;;;29.02;19.23;;;;;;;;;;5030547;28;20168;-64
2022/08/19 11:24:27;;;;;;;25.65;19.60;;;;;;;;;;5036350;28;20164;-64
2022/08/19 11:26:56;;;;;;;26.48;19.17;;;;;;;;;;5035008;28;20281;-64
2022/08/19 11:29:23;;;;;;;29.17;19.85;;;;;;;;;;5035287;28;20616;-64
2022/08/19 11:31:49;;;;;;;32.13;19.73;;;;;;;;;;5035964;28;20638;-64
2022/08/19 11:34:16;;;;;;;27.02;19.73;;;;;;;;;;5034819;28;20160;-64
2022/08/19 11:36:43;;;;;;;26.67;19.15;;;;;;;;;;5034498;28;20250;-65
2022/08/19 11:39:09;;;;;;;26.38;19.90;;;;;;;;;;5034180;28;20223;-63
2022/08/19 11:41:34;;;;;;;28.40;20.63;;;;;;;;;;5035871;28;20242;-69
2022/08/19 11:44:00;;;;;;;27.05;20.08;;;;;;;;;;5033987;28;20538;-65
2022/08/19 11:46:25;;;;;;;28.98;20.65;;;;;;;;;;5035713;28;20314;-65
2022/08/19 11:48:51;;;;;;;26.15;18.73;;;;;;;;;;5035996;28;20173;-65
2022/08/19 11:51:21;;;;;;;26.95;18.08;;;;;;;;;;5034707;28;20195;-65
2022/08/19 11:53:47;;;;;;;25.75;19.45;;;;;;;;;;5034529;28;20160;-65
2022/08/19 11:56:12;;;;;;;27.33;18.88;;;;;;;;;;5035430;28;20247;-65
2022/08/19 11:58:38;;;;;;;25.48;17.55;;;;;;;;;;5033662;28;20176;-65
2022/08/19 12:01:05;;;;;;;27.30;18.55;;;;;;;;;;5034383;28;20172;-65
2022/08/19 12:03:30;;;;;;;22.38;17.73;;;;;;;;;;5000348;28;20271;-66
2022/08/19 12:05:56;;;;;;;25.02;18.63;;;;;;;;;;5019428;28;20303;-63
2022/08/19 12:08:22;;;;;;;23.90;17.20;;;;;;;;;;5033039;28;20174;-63
2022/08/19 12:10:47;;;;;;;26.92;18.15;;;;;;;;;;5035455;28;20642;-64
2022/08/19 12:13:18;;;;;;;22.58;17.38;;;;;;;;;;5034668;28;20168;-64
2022/08/19 12:15:45;;;;;;;20.92;17.35;;;;;;;;;;5034314;28;20222;-64
2022/08/19 12:18:10;;;;;;;22.55;16.20;;;;;;;;;;5035068;28;20168;-63
2022/08/19 12:20:36;;;;;;;25.40;17.52;;;;;;;;;;5035411;28;20164;-64
2022/08/19 12:23:02;;;;;;;23.05;15.43;;;;;;;;;;5034031;28;20195;-64
2022/08/19 12:25:27;;;;;;;23.65;16.33;;;;;;;;;;5034165;28;20655;-64
2022/08/19 12:27:53;;;;;;;22.33;15.02;;;;;;;;;;5035121;28;20627;-63
2022/08/19 12:30:18;;;;;;;23.67;16.73;;;;;;;;;;5034651;28;20176;-64
2022/08/19 12:32:43;;;;;;;21.58;15.30;;;;;;;;;;5034202;28;20172;-63
2022/08/19 12:35:11;;;;;;;20.13;14.48;;;;;;;;;;5034133;28;20179;-65
2022/08/19 12:37:36;;;;;;;18.33;13.25;;;;;;;;;;5034579;28;20167;-64
2022/08/19 12:40:02;;;;;;;19.52;14.18;;;;;;;;;;5033754;28;20509;-64
2022/08/19 12:42:30;;;;;;;18.35;13.93;;;;;;;;;;5034745;28;20541;-64
2022/08/19 12:44:55;;;;;;;21.33;14.80;;;;;;;;;;5035037;28;20231;-64
2022/08/19 12:47:21;;;;;;;19.42;12.98;;;;;;;;;;5034456;28;20200;-64
2022/08/19 12:49:46;;;;;;;16.83;13.68;;;;;;;;;;5033533;28;20164;-64
2022/08/19 12:52:15;;;;;;;18.55;12.38;;;;;;;;;;5033042;28;20187;-64
2022/08/19 12:54:40;;;;;;;19.30;13.77;;;;;;;;;;5033854;28;20176;-64
2022/08/19 12:57:07;;;;;;;17.90;13.77;;;;;;;;;;5033033;28;20182;-64
2022/08/19 12:59:33;;;;;;;18.02;12.95;;;;;;;;;;5034381;28;20168;-64
2022/08/19 13:01:59;;;;;;;21.73;15.32;;;;;;;;;;5032769;28;20187;-64
2022/08/19 13:04:24;;;;;;;17.88;13.85;;;;;;;;;;5033366;28;20168;-65
2022/08/19 13:06:49;;;;;;;20.38;15.43;;;;;;;;;;5034426;28;20560;-64
2022/08/19 13:09:14;;;;;;;21.02;16.38;;;;;;;;;;5033494;28;20526;-64
2022/08/19 13:11:40;;;;;;;23.00;16.25;;;;;;;;;;5033798;28;20661;-65
2022/08/19 13:14:05;;;;;;;24.10;16.65;;;;;;;;;;5034099;28;20168;-65
2022/08/19 13:16:31;;;;;;;21.63;17.52;;;;;;;;;;5033595;28;20168;-64
2022/08/19 13:18:56;;;;;;;24.02;16.73;;;;;;;;;;5034220;28;20254;-65
2022/08/19 13:21:23;;;;;;;21.67;16.98;;;;;;;;;;5034097;28;20179;-64
2022/08/19 13:23:48;;;;;;;23.67;19.08;;;;;;;;;;5033418;28;20214;-64
2022/08/19 13:26:13;;;;;;;25.52;18.33;;;;;;;;;;5033996;28;20600;-64
2022/08/19 13:34:07;;;;;;;24.52;18.15;;;;;;;;;;5034015;28;20179;-64
2022/08/19 13:36:32;;;;;;;21.60;17.20;;;;;;;;;;5031867;28;20172;-64
2022/08/19 13:38:58;;;;;;;22.88;17.80;;;;;;;;;;5033154;28;20199;-64
2022/08/19 13:41:23;;;;;;;22.50;17.70;;;;;;;;;;5030943;28;20254;-64
2022/08/19 13:43:49;;;;;;;20.70;16.17;;;;;;;;;;5029751;28;20168;-64
2022/08/19 13:46:14;;;;;;;20.83;16.50;;;;;;;;;;5032212;28;20232;-64
2022/08/19 13:48:40;;;;;;;19.70;16.88;;;;;;;;;;5033497;28;20252;-64
2022/08/19 13:51:06;;;;;;;22.05;17.02;;;;;;;;;;5031562;28;20164;-64
2022/08/19 13:53:31;;;;;;;19.30;15.00;;;;;;;;;;5033465;28;20164;-64
2022/08/19 13:55:57;;;;;;;21.60;17.25;;;;;;;;;;5033356;28;20176;-64
2022/08/19 13:58:22;;;;;;;22.80;18.23;;;;;;;;;;5026733;28;20234;-64
2022/08/19 14:00:47;;;;;;;19.98;15.95;;;;;;;;;;5032632;28;20186;-64
2022/08/19 14:03:13;;;;;;;20.38;16.75;;;;;;;;;;5031046;28;20544;-64
2022/08/19 14:05:38;;;;;;;22.05;16.35;;;;;;;;;;5032694;28;20207;-64
2022/08/19 14:08:04;;;;;;;22.35;16.77;;;;;;;;;;5033639;28;20175;-64
2022/08/19 14:10:31;;;;;;;21.20;15.82;;;;;;;;;;5031268;28;20171;-64
2022/08/19 14:12:57;;;;;;;20.27;15.82;;;;;;;;;;5032173;28;20215;-64
2022/08/19 14:15:23;;;;;;;21.52;14.57;;;;;;;;;;5031996;28;20180;-64
2022/08/19 14:17:48;;;;;;;20.35;16.60;;;;;;;;;;5031668;28;20307;-64
2022/08/19 14:20:15;;;;;;;25.38;18.98;;;;;;;;;;5033246;28;20164;-64
2022/08/19 14:22:40;;;;;;;21.92;17.42;;;;;;;;;;5033201;28;20176;-63
2022/08/19 14:25:07;;;;;;;21.60;16.92;;;;;;;;;;5030887;28;20168;-63
2022/08/19 14:27:33;;;;;;;20.05;17.48;;;;;;;;;;5030737;28;20184;-63
2022/08/19 14:29:59;;;;;;;18.30;15.15;;;;;;;;;;5031777;28;20237;-63
2022/08/19 14:32:26;;;;;;;20.02;15.85;;;;;;;;;;5031043;28;20171;-63
2022/08/19 14:34:52;;;;;;;19.10;15.63;;;;;;;;;;5033093;28;20270;-63
2022/08/19 14:37:17;;;;;;;20.00;15.70;;;;;;;;;;5033042;28;20619;-63